sensor_id;sensor_type;location;lat;lon;timestamp;temperature;humidity
4651;DHT22;2338;49.602;8.722;2023-06-01T00:02:38;16.40;76.00
4651;DHT22;2338;49.602;8.722;2023-06-01T00:05:23;16.40;74.30
4651;DHT22;2338;49.602;8.722;2023-06-01T00:08:09;16.40;76.40
4651;DHT22;2338;49.602;8.722;2023-06-01T00:10:55;16.40;75.30
4651;DHT22;2338;49.602;8.722;2023-06-01T00:13:41;16.40;74.90
4651;DHT22;2338;49.602;8.722;2023-06-01T00:16:27;16.30;73.60
4651;DHT22;2338;49.602;8.722;2023-06-01T00:19:12;16.30;74.30
4651;DHT22;2338;49.602;8.722;2023-06-01T00:21:58;16.20;74.90
4651;DHT22;2338;49.602;8.722;2023-06-01T00:24:44;16.00;75.90
4651;DHT22;2338;49.602;8.722;2023-06-01T00:27:29;15.90;77.00
4651;DHT22;2338;49.602;8.722;2023-06-01T00:30:16;15.80;77.50
4651;DHT22;2338;49.602;8.722;2023-06-01T00:33:02;15.80;77.30
4651;DHT22;2338;49.602;8.722;2023-06-01T00:35:47;15.80;78.00
4651;DHT22;2338;49.602;8.722;2023-06-01T00:38:33;15.60;78.00
4651;DHT22;2338;49.602;8.722;2023-06-01T00:41:19;15.50;78.50
4651;DHT22;2338;49.602;8.722;2023-06-01T00:44:04;15.40;79.10
4651;DHT22;2338;49.602;8.722;2023-06-01T00:46:51;15.30;80.00
4651;DHT22;2338;49.602;8.722;2023-06-01T00:49:37;15.20;80.50
4651;DHT22;2338;49.602;8.722;2023-06-01T00:52:23;15.00;81.10
4651;DHT22;2338;49.602;8.722;2023-06-01T00:55:09;14.90;81.60
4651;DHT22;2338;49.602;8.722;2023-06-01T00:57:55;15.00;82.20
4651;DHT22;2338;49.602;8.722;2023-06-01T01:00:41;15.00;82.40
4651;DHT22;2338;49.602;8.722;2023-06-01T01:03:28;15.00;82.40
4651;DHT22;2338;49.602;8.722;2023-06-01T01:06:22;15.00;82.20
4651;DHT22;2338;49.602;8.722;2023-06-01T01:09:17;14.90;82.50
4651;DHT22;2338;49.602;8.722;2023-06-01T01:12:12;14.80;82.30
4651;DHT22;2338;49.602;8.722;2023-06-01T01:15:05;14.80;83.20
4651;DHT22;2338;49.602;8.722;2023-06-01T01:17:59;14.80;83.20
4651;DHT22;2338;49.602;8.722;2023-06-01T01:20:51;14.70;84.10
4651;DHT22;2338;49.602;8.722;2023-06-01T01:23:48;14.60;84.80
4651;DHT22;2338;49.602;8.722;2023-06-01T01:26:56;14.60;85.20
4651;DHT22;2338;49.602;8.722;2023-06-01T01:29:46;14.50;86.00
4651;DHT22;2338;49.602;8.722;2023-06-01T01:32:32;14.40;86.10
4651;DHT22;2338;49.602;8.722;2023-06-01T01:35:20;14.50;86.70
4651;DHT22;2338;49.602;8.722;2023-06-01T01:38:06;14.40;87.90
4651;DHT22;2338;49.602;8.722;2023-06-01T01:40:51;14.40;87.80
4651;DHT22;2338;49.602;8.722;2023-06-01T01:43:38;14.00;88.50
4651;DHT22;2338;49.602;8.722;2023-06-01T01:46:26;14.10;89.40
4651;DHT22;2338;49.602;8.722;2023-06-01T01:49:16;14.10;89.70
4651;DHT22;2338;49.602;8.722;2023-06-01T01:52:06;14.10;90.60
4651;DHT22;2338;49.602;8.722;2023-06-01T01:54:53;13.90;90.60
4651;DHT22;2338;49.602;8.722;2023-06-01T01:57:41;14.00;91.00
4651;DHT22;2338;49.602;8.722;2023-06-01T02:00:27;14.00;91.00
4651;DHT22;2338;49.602;8.722;2023-06-01T02:03:15;13.90;90.80
4651;DHT22;2338;49.602;8.722;2023-06-01T02:06:00;13.90;90.90
4651;DHT22;2338;49.602;8.722;2023-06-01T02:08:45;13.80;91.10
4651;DHT22;2338;49.602;8.722;2023-06-01T02:11:31;13.80;91.20
4651;DHT22;2338;49.602;8.722;2023-06-01T02:14:16;13.70;91.50
4651;DHT22;2338;49.602;8.722;2023-06-01T02:17:02;13.70;91.60
4651;DHT22;2338;49.602;8.722;2023-06-01T02:19:50;13.60;91.90
4651;DHT22;2338;49.602;8.722;2023-06-01T02:22:36;13.60;91.80
4651;DHT22;2338;49.602;8.722;2023-06-01T02:25:21;13.50;92.50
4651;DHT22;2338;49.602;8.722;2023-06-01T02:28:07;13.50;92.80
4651;DHT22;2338;49.602;8.722;2023-06-01T02:30:54;13.40;93.00
4651;DHT22;2338;49.602;8.722;2023-06-01T02:33:39;13.50;93.70
4651;DHT22;2338;49.602;8.722;2023-06-01T02:36:27;13.40;93.90
4651;DHT22;2338;49.602;8.722;2023-06-01T02:39:13;13.40;94.60
4651;DHT22;2338;49.602;8.722;2023-06-01T02:41:58;13.40;94.60
4651;DHT22;2338;49.602;8.722;2023-06-01T02:44:44;13.40;94.70
4651;DHT22;2338;49.602;8.722;2023-06-01T02:47:30;13.50;94.60
4651;DHT22;2338;49.602;8.722;2023-06-01T02:50:15;13.50;94.40
4651;DHT22;2338;49.602;8.722;2023-06-01T02:53:02;13.40;94.40
4651;DHT22;2338;49.602;8.722;2023-06-01T02:55:49;13.40;94.60
4651;DHT22;2338;49.602;8.722;2023-06-01T02:58:34;13.20;94.90
4651;DHT22;2338;49.602;8.722;2023-06-01T03:01:20;13.20;95.50
4651;DHT22;2338;49.602;8.722;2023-06-01T03:04:06;13.20;95.50
4651;DHT22;2338;49.602;8.722;2023-06-01T03:06:51;13.20;95.40
4651;DHT22;2338;49.602;8.722;2023-06-01T03:09:38;13.20;95.60
4651;DHT22;2338;49.602;8.722;2023-06-01T03:12:23;13.20;95.80
4651;DHT22;2338;49.602;8.722;2023-06-01T03:15:09;13.00;96.40
4651;DHT22;2338;49.602;8.722;2023-06-01T03:17:55;13.10;96.40
4651;DHT22;2338;49.602;8.722;2023-06-01T03:20:40;13.10;96.40
4651;DHT22;2338;49.602;8.722;2023-06-01T03:23:26;13.10;97.20
4651;DHT22;2338;49.602;8.722;2023-06-01T03:26:14;13.10;96.60
4651;DHT22;2338;49.602;8.722;2023-06-01T03:29:01;13.10;96.80
4651;DHT22;2338;49.602;8.722;2023-06-01T03:31:47;13.10;96.90
4651;DHT22;2338;49.602;8.722;2023-06-01T03:34:32;12.90;97.70
4651;DHT22;2338;49.602;8.722;2023-06-01T03:37:20;12.90;98.20
4651;DHT22;2338;49.602;8.722;2023-06-01T03:40:07;12.90;98.80
4651;DHT22;2338;49.602;8.722;2023-06-01T03:42:56;12.90;99.10
4651;DHT22;2338;49.602;8.722;2023-06-01T03:45:42;12.90;99.60
4651;DHT22;2338;49.602;8.722;2023-06-01T03:48:27;12.90;99.70
4651;DHT22;2338;49.602;8.722;2023-06-01T03:51:13;12.90;99.90
4651;DHT22;2338;49.602;8.722;2023-06-01T03:53:58;12.90;99.90
4651;DHT22;2338;49.602;8.722;2023-06-01T03:56:44;13.00;99.90
4651;DHT22;2338;49.602;8.722;2023-06-01T03:59:30;12.90;99.90
4651;DHT22;2338;49.602;8.722;2023-06-01T04:02:16;12.90;99.90
4651;DHT22;2338;49.602;8.722;2023-06-01T04:05:01;12.90;99.90
4651;DHT22;2338;49.602;8.722;2023-06-01T04:07:53;12.90;99.90
4651;DHT22;2338;49.602;8.722;2023-06-01T04:10:39;12.90;99.90
4651;DHT22;2338;49.602;8.722;2023-06-01T04:13:25;12.90;99.90
4651;DHT22;2338;49.602;8.722;2023-06-01T04:16:12;13.00;99.90
4651;DHT22;2338;49.602;8.722;2023-06-01T04:18:57;13.00;99.90
4651;DHT22;2338;49.602;8.722;2023-06-01T04:21:43;13.10;99.90
4651;DHT22;2338;49.602;8.722;2023-06-01T04:24:28;13.20;99.90
4651;DHT22;2338;49.602;8.722;2023-06-01T04:27:14;13.30;99.90
4651;DHT22;2338;49.602;8.722;2023-06-01T04:29:59;13.30;99.90
4651;DHT22;2338;49.602;8.722;2023-06-01T04:32:47;13.50;99.90
4651;DHT22;2338;49.602;8.722;2023-06-01T04:35:32;13.50;99.90
4651;DHT22;2338;49.602;8.722;2023-06-01T04:38:18;13.50;99.90
4651;DHT22;2338;49.602;8.722;2023-06-01T04:41:03;13.70;99.90
4651;DHT22;2338;49.602;8.722;2023-06-01T04:43:49;13.70;99.90
4651;DHT22;2338;49.602;8.722;2023-06-01T04:46:35;13.70;99.90
4651;DHT22;2338;49.602;8.722;2023-06-01T04:49:25;13.80;99.90
4651;DHT22;2338;49.602;8.722;2023-06-01T04:52:12;13.80;99.90
4651;DHT22;2338;49.602;8.722;2023-06-01T04:54:57;14.00;99.90
4651;DHT22;2338;49.602;8.722;2023-06-01T04:57:43;14.10;99.90
4651;DHT22;2338;49.602;8.722;2023-06-01T05:00:28;14.20;99.90
4651;DHT22;2338;49.602;8.722;2023-06-01T05:03:14;14.20;99.90
4651;DHT22;2338;49.602;8.722;2023-06-01T05:06:01;14.40;99.90
4651;DHT22;2338;49.602;8.722;2023-06-01T05:08:46;14.50;99.90
4651;DHT22;2338;49.602;8.722;2023-06-01T05:11:32;14.60;99.90
4651;DHT22;2338;49.602;8.722;2023-06-01T05:14:17;14.60;99.90
4651;DHT22;2338;49.602;8.722;2023-06-01T05:17:03;14.80;99.90
4651;DHT22;2338;49.602;8.722;2023-06-01T05:19:49;15.00;99.90
4651;DHT22;2338;49.602;8.722;2023-06-01T05:22:36;15.10;99.90
4651;DHT22;2338;49.602;8.722;2023-06-01T05:25:22;15.30;99.90
4651;DHT22;2338;49.602;8.722;2023-06-01T05:28:07;15.40;98.70
4651;DHT22;2338;49.602;8.722;2023-06-01T05:30:52;15.60;99.00
4651;DHT22;2338;49.602;8.722;2023-06-01T05:33:38;15.70;98.00
4651;DHT22;2338;49.602;8.722;2023-06-01T05:36:23;15.80;98.40
4651;DHT22;2338;49.602;8.722;2023-06-01T05:39:10;16.00;98.90
4651;DHT22;2338;49.602;8.722;2023-06-01T05:41:56;16.10;98.30
4651;DHT22;2338;49.602;8.722;2023-06-01T05:44:41;16.30;97.60
4651;DHT22;2338;49.602;8.722;2023-06-01T05:47:27;16.40;97.60
4651;DHT22;2338;49.602;8.722;2023-06-01T05:50:12;16.60;97.40
4651;DHT22;2338;49.602;8.722;2023-06-01T05:52:58;16.70;96.60
4651;DHT22;2338;49.602;8.722;2023-06-01T05:55:45;16.90;97.40
4651;DHT22;2338;49.602;8.722;2023-06-01T05:58:30;17.10;96.80
4651;DHT22;2338;49.602;8.722;2023-06-01T06:01:16;17.20;96.30
4651;DHT22;2338;49.602;8.722;2023-06-01T06:04:01;17.40;96.90
4651;DHT22;2338;49.602;8.722;2023-06-01T06:06:47;17.50;95.20
4651;DHT22;2338;49.602;8.722;2023-06-01T06:09:33;17.70;93.40
4651;DHT22;2338;49.602;8.722;2023-06-01T06:12:20;17.80;91.40
4651;DHT22;2338;49.602;8.722;2023-06-01T06:15:06;18.00;92.30
4651;DHT22;2338;49.602;8.722;2023-06-01T06:17:51;18.20;87.00
4651;DHT22;2338;49.602;8.722;2023-06-01T06:20:37;18.30;78.50
4651;DHT22;2338;49.602;8.722;2023-06-01T06:23:22;18.40;78.10
4651;DHT22;2338;49.602;8.722;2023-06-01T06:26:08;18.50;77.20
4651;DHT22;2338;49.602;8.722;2023-06-01T06:28:55;18.70;76.80
4651;DHT22;2338;49.602;8.722;2023-06-01T06:31:40;18.80;69.40
4651;DHT22;2338;49.602;8.722;2023-06-01T06:34:27;19.00;68.80
4651;DHT22;2338;49.602;8.722;2023-06-01T06:37:17;19.10;65.40
4651;DHT22;2338;49.602;8.722;2023-06-01T06:40:04;19.30;65.30
4651;DHT22;2338;49.602;8.722;2023-06-01T06:42:50;19.40;66.10
4651;DHT22;2338;49.602;8.722;2023-06-01T06:45:37;19.50;65.40
4651;DHT22;2338;49.602;8.722;2023-06-01T06:48:23;19.60;63.90
4651;DHT22;2338;49.602;8.722;2023-06-01T06:51:09;19.80;61.20
4651;DHT22;2338;49.602;8.722;2023-06-01T06:53:54;19.80;60.40
4651;DHT22;2338;49.602;8.722;2023-06-01T06:56:40;20.00;58.60
4651;DHT22;2338;49.602;8.722;2023-06-01T06:59:25;20.10;53.40
4651;DHT22;2338;49.602;8.722;2023-06-01T07:02:12;20.10;50.50
4651;DHT22;2338;49.602;8.722;2023-06-01T07:04:57;20.30;53.70
4651;DHT22;2338;49.602;8.722;2023-06-01T07:07:43;20.30;53.60
4651;DHT22;2338;49.602;8.722;2023-06-01T07:10:29;20.40;49.80
4651;DHT22;2338;49.602;8.722;2023-06-01T07:13:14;20.50;49.00
4651;DHT22;2338;49.602;8.722;2023-06-01T07:16:00;20.60;48.80
4651;DHT22;2338;49.602;8.722;2023-06-01T07:18:47;20.70;51.70
4651;DHT22;2338;49.602;8.722;2023-06-01T07:21:32;20.90;47.90
4651;DHT22;2338;49.602;8.722;2023-06-01T07:24:18;21.00;49.00
4651;DHT22;2338;49.602;8.722;2023-06-01T07:27:04;21.10;48.30
4651;DHT22;2338;49.602;8.722;2023-06-01T07:29:51;21.30;44.80
4651;DHT22;2338;49.602;8.722;2023-06-01T07:32:39;21.40;44.30
4651;DHT22;2338;49.602;8.722;2023-06-01T07:35:26;21.50;41.20
4651;DHT22;2338;49.602;8.722;2023-06-01T07:38:11;21.50;42.80
4651;DHT22;2338;49.602;8.722;2023-06-01T07:40:56;21.50;42.60
4651;DHT22;2338;49.602;8.722;2023-06-01T07:43:42;21.60;42.60
4651;DHT22;2338;49.602;8.722;2023-06-01T07:46:27;21.60;41.30
4651;DHT22;2338;49.602;8.722;2023-06-01T07:49:13;21.80;43.00
4651;DHT22;2338;49.602;8.722;2023-06-01T07:52:00;21.80;42.80
4651;DHT22;2338;49.602;8.722;2023-06-01T07:54:46;21.90;40.90
4651;DHT22;2338;49.602;8.722;2023-06-01T07:57:33;21.90;40.70
4651;DHT22;2338;49.602;8.722;2023-06-01T08:00:19;22.00;40.10
4651;DHT22;2338;49.602;8.722;2023-06-01T08:03:06;22.20;39.90
4651;DHT22;2338;49.602;8.722;2023-06-01T08:05:52;22.20;40.50
4651;DHT22;2338;49.602;8.722;2023-06-01T08:08:42;22.30;39.40
4651;DHT22;2338;49.602;8.722;2023-06-01T08:11:27;22.40;39.00
4651;DHT22;2338;49.602;8.722;2023-06-01T08:14:13;22.40;37.70
4651;DHT22;2338;49.602;8.722;2023-06-01T08:16:59;22.40;38.30
4651;DHT22;2338;49.602;8.722;2023-06-01T08:19:46;22.40;36.90
4651;DHT22;2338;49.602;8.722;2023-06-01T08:22:31;22.50;37.80
4651;DHT22;2338;49.602;8.722;2023-06-01T08:25:19;22.50;40.40
4651;DHT22;2338;49.602;8.722;2023-06-01T08:28:04;22.60;38.50
4651;DHT22;2338;49.602;8.722;2023-06-01T08:30:50;22.70;39.20
4651;DHT22;2338;49.602;8.722;2023-06-01T08:33:35;22.80;35.70
4651;DHT22;2338;49.602;8.722;2023-06-01T08:36:21;22.80;37.10
4651;DHT22;2338;49.602;8.722;2023-06-01T08:39:19;22.90;35.20
4651;DHT22;2338;49.602;8.722;2023-06-01T08:42:11;23.00;36.00
4651;DHT22;2338;49.602;8.722;2023-06-01T08:44:58;23.10;39.80
4651;DHT22;2338;49.602;8.722;2023-06-01T08:47:47;23.20;37.20
4651;DHT22;2338;49.602;8.722;2023-06-01T08:50:34;23.40;33.40
4651;DHT22;2338;49.602;8.722;2023-06-01T08:53:20;23.40;29.80
4651;DHT22;2338;49.602;8.722;2023-06-01T08:56:06;23.40;30.50
4651;DHT22;2338;49.602;8.722;2023-06-01T08:58:54;23.40;33.20
4651;DHT22;2338;49.602;8.722;2023-06-01T09:01:40;23.50;30.50
4651;DHT22;2338;49.602;8.722;2023-06-01T09:04:26;23.50;30.40
4651;DHT22;2338;49.602;8.722;2023-06-01T09:07:12;23.40;27.90
4651;DHT22;2338;49.602;8.722;2023-06-01T09:09:58;23.50;30.20
4651;DHT22;2338;49.602;8.722;2023-06-01T09:12:51;23.50;27.80
4651;DHT22;2338;49.602;8.722;2023-06-01T09:15:50;23.70;29.40
4651;DHT22;2338;49.602;8.722;2023-06-01T09:18:35;23.90;24.40
4651;DHT22;2338;49.602;8.722;2023-06-01T09:21:21;24.00;22.10
4651;DHT22;2338;49.602;8.722;2023-06-01T09:24:27;24.10;22.30
4651;DHT22;2338;49.602;8.722;2023-06-01T09:27:13;24.10;20.00
4651;DHT22;2338;49.602;8.722;2023-06-01T09:29:59;24.30;22.70
4651;DHT22;2338;49.602;8.722;2023-06-01T09:32:46;24.40;20.50
4651;DHT22;2338;49.602;8.722;2023-06-01T09:35:40;24.40;19.40
4651;DHT22;2338;49.602;8.722;2023-06-01T09:38:26;24.50;20.00
4651;DHT22;2338;49.602;8.722;2023-06-01T09:41:11;24.50;20.30
4651;DHT22;2338;49.602;8.722;2023-06-01T09:43:57;24.60;20.90
4651;DHT22;2338;49.602;8.722;2023-06-01T09:46:46;24.70;19.20
4651;DHT22;2338;49.602;8.722;2023-06-01T09:49:35;24.70;19.70
4651;DHT22;2338;49.602;8.722;2023-06-01T09:52:20;24.80;17.20
4651;DHT22;2338;49.602;8.722;2023-06-01T09:55:08;24.90;16.70
4651;DHT22;2338;49.602;8.722;2023-06-01T09:58:16;25.00;16.90
4651;DHT22;2338;49.602;8.722;2023-06-01T10:01:02;25.10;15.80
4651;DHT22;2338;49.602;8.722;2023-06-01T10:03:51;25.00;18.60
4651;DHT22;2338;49.602;8.722;2023-06-01T10:06:41;25.10;17.00
4651;DHT22;2338;49.602;8.722;2023-06-01T10:09:27;25.10;19.10
4651;DHT22;2338;49.602;8.722;2023-06-01T10:12:14;25.20;18.40
4651;DHT22;2338;49.602;8.722;2023-06-01T10:15:00;25.30;19.20
4651;DHT22;2338;49.602;8.722;2023-06-01T10:17:48;25.30;19.00
4651;DHT22;2338;49.602;8.722;2023-06-01T10:20:35;25.40;19.30
4651;DHT22;2338;49.602;8.722;2023-06-01T10:23:22;25.50;19.30
4651;DHT22;2338;49.602;8.722;2023-06-01T10:26:10;25.50;20.20
4651;DHT22;2338;49.602;8.722;2023-06-01T10:28:59;25.50;19.40
4651;DHT22;2338;49.602;8.722;2023-06-01T10:31:45;25.60;20.00
4651;DHT22;2338;49.602;8.722;2023-06-01T10:34:38;25.70;19.50
4651;DHT22;2338;49.602;8.722;2023-06-01T10:37:24;25.70;19.00
4651;DHT22;2338;49.602;8.722;2023-06-01T10:40:19;25.70;17.10
4651;DHT22;2338;49.602;8.722;2023-06-01T10:43:05;25.70;19.20
4651;DHT22;2338;49.602;8.722;2023-06-01T10:45:52;25.70;17.90
4651;DHT22;2338;49.602;8.722;2023-06-01T10:48:54;25.70;17.90
4651;DHT22;2338;49.602;8.722;2023-06-01T10:51:40;25.70;17.90
4651;DHT22;2338;49.602;8.722;2023-06-01T10:54:29;25.80;18.00
4651;DHT22;2338;49.602;8.722;2023-06-01T10:57:24;25.90;17.60
4651;DHT22;2338;49.602;8.722;2023-06-01T11:00:20;26.00;18.60
4651;DHT22;2338;49.602;8.722;2023-06-01T11:03:06;26.00;17.80
4651;DHT22;2338;49.602;8.722;2023-06-01T11:05:52;26.00;16.30
4651;DHT22;2338;49.602;8.722;2023-06-01T11:08:52;26.00;16.70
4651;DHT22;2338;49.602;8.722;2023-06-01T11:11:57;26.10;16.30
4651;DHT22;2338;49.602;8.722;2023-06-01T11:15:07;26.10;16.60
4651;DHT22;2338;49.602;8.722;2023-06-01T11:17:54;26.20;16.50
4651;DHT22;2338;49.602;8.722;2023-06-01T11:20:40;26.30;16.00
4651;DHT22;2338;49.602;8.722;2023-06-01T11:23:26;26.30;16.60
4651;DHT22;2338;49.602;8.722;2023-06-01T11:26:14;26.20;16.80
4651;DHT22;2338;49.602;8.722;2023-06-01T11:29:11;26.30;15.10
4651;DHT22;2338;49.602;8.722;2023-06-01T11:31:59;26.30;17.70
4651;DHT22;2338;49.602;8.722;2023-06-01T11:34:45;26.30;16.40
4651;DHT22;2338;49.602;8.722;2023-06-01T11:37:32;26.50;17.80
4651;DHT22;2338;49.602;8.722;2023-06-01T11:40:18;26.50;15.80
4651;DHT22;2338;49.602;8.722;2023-06-01T11:43:05;26.40;15.10
4651;DHT22;2338;49.602;8.722;2023-06-01T11:45:59;26.30;14.40
4651;DHT22;2338;49.602;8.722;2023-06-01T11:48:58;26.20;16.70
4651;DHT22;2338;49.602;8.722;2023-06-01T11:51:45;26.40;17.40
4651;DHT22;2338;49.602;8.722;2023-06-01T11:54:30;26.50;16.90
4651;DHT22;2338;49.602;8.722;2023-06-01T11:57:16;26.60;15.00
4651;DHT22;2338;49.602;8.722;2023-06-01T12:00:10;26.70;16.40
4651;DHT22;2338;49.602;8.722;2023-06-01T12:03:06;26.80;14.30
4651;DHT22;2338;49.602;8.722;2023-06-01T12:05:54;27.00;14.10
4651;DHT22;2338;49.602;8.722;2023-06-01T12:08:39;26.90;13.20
4651;DHT22;2338;49.602;8.722;2023-06-01T12:11:26;27.00;13.30
4651;DHT22;2338;49.602;8.722;2023-06-01T12:14:12;27.10;13.20
4651;DHT22;2338;49.602;8.722;2023-06-01T12:16:59;27.10;13.90
4651;DHT22;2338;49.602;8.722;2023-06-01T12:19:50;27.30;13.10
4651;DHT22;2338;49.602;8.722;2023-06-01T12:22:37;27.20;13.00
4651;DHT22;2338;49.602;8.722;2023-06-01T12:25:22;27.20;13.10
4651;DHT22;2338;49.602;8.722;2023-06-01T12:28:08;27.30;13.60
4651;DHT22;2338;49.602;8.722;2023-06-01T12:31:07;27.30;14.40
4651;DHT22;2338;49.602;8.722;2023-06-01T12:33:53;27.40;12.00
4651;DHT22;2338;49.602;8.722;2023-06-01T12:36:39;27.40;13.40
4651;DHT22;2338;49.602;8.722;2023-06-01T12:39:35;27.40;14.00
4651;DHT22;2338;49.602;8.722;2023-06-01T12:42:33;27.50;13.80
4651;DHT22;2338;49.602;8.722;2023-06-01T12:45:20;27.60;13.90
4651;DHT22;2338;49.602;8.722;2023-06-01T12:48:06;27.80;13.60
4651;DHT22;2338;49.602;8.722;2023-06-01T12:50:51;27.90;13.30
4651;DHT22;2338;49.602;8.722;2023-06-01T12:53:37;28.10;12.00
4651;DHT22;2338;49.602;8.722;2023-06-01T12:56:23;28.00;13.20
4651;DHT22;2338;49.602;8.722;2023-06-01T12:59:10;28.00;13.20
4651;DHT22;2338;49.602;8.722;2023-06-01T13:01:55;28.00;12.50
4651;DHT22;2338;49.602;8.722;2023-06-01T13:04:41;28.10;13.70
4651;DHT22;2338;49.602;8.722;2023-06-01T13:07:27;28.10;13.90
4651;DHT22;2338;49.602;8.722;2023-06-01T13:10:13;28.30;11.60
4651;DHT22;2338;49.602;8.722;2023-06-01T13:13:00;28.40;12.20
4651;DHT22;2338;49.602;8.722;2023-06-01T13:15:46;28.40;11.80
4651;DHT22;2338;49.602;8.722;2023-06-01T13:18:31;28.50;13.10
4651;DHT22;2338;49.602;8.722;2023-06-01T13:21:17;28.50;10.10
4651;DHT22;2338;49.602;8.722;2023-06-01T13:24:03;28.50;12.30
4651;DHT22;2338;49.602;8.722;2023-06-01T13:26:49;28.60;11.90
4651;DHT22;2338;49.602;8.722;2023-06-01T13:29:36;28.70;10.30
4651;DHT22;2338;49.602;8.722;2023-06-01T13:32:21;28.80;11.50
4651;DHT22;2338;49.602;8.722;2023-06-01T13:35:07;29.00;11.70
4651;DHT22;2338;49.602;8.722;2023-06-01T13:37:53;29.20;10.60
4651;DHT22;2338;49.602;8.722;2023-06-01T13:40:38;29.30;11.40
4651;DHT22;2338;49.602;8.722;2023-06-01T13:43:24;29.20;9.60
4651;DHT22;2338;49.602;8.722;2023-06-01T13:46:11;29.30;10.60
4651;DHT22;2338;49.602;8.722;2023-06-01T13:48:56;29.30;11.80
4651;DHT22;2338;49.602;8.722;2023-06-01T13:51:41;29.30;9.70
4651;DHT22;2338;49.602;8.722;2023-06-01T13:54:27;29.30;10.10
4651;DHT22;2338;49.602;8.722;2023-06-01T13:57:12;29.20;9.60
4651;DHT22;2338;49.602;8.722;2023-06-01T13:59:58;29.20;8.90
4651;DHT22;2338;49.602;8.722;2023-06-01T14:02:45;29.10;9.60
4651;DHT22;2338;49.602;8.722;2023-06-01T14:05:30;29.20;8.70
4651;DHT22;2338;49.602;8.722;2023-06-01T14:08:16;29.10;9.60
4651;DHT22;2338;49.602;8.722;2023-06-01T14:11:01;29.20;9.60
4651;DHT22;2338;49.602;8.722;2023-06-01T14:13:47;29.20;9.60
4651;DHT22;2338;49.602;8.722;2023-06-01T14:16:32;29.20;9.60
4651;DHT22;2338;49.602;8.722;2023-06-01T14:19:19;29.30;9.70
4651;DHT22;2338;49.602;8.722;2023-06-01T14:22:05;29.40;9.10
4651;DHT22;2338;49.602;8.722;2023-06-01T14:24:50;29.40;10.10
4651;DHT22;2338;49.602;8.722;2023-06-01T14:27:36;29.50;8.70
4651;DHT22;2338;49.602;8.722;2023-06-01T14:30:22;29.40;7.80
4651;DHT22;2338;49.602;8.722;2023-06-01T14:33:07;29.40;9.30
4651;DHT22;2338;49.602;8.722;2023-06-01T14:35:54;29.10;9.60
4651;DHT22;2338;49.602;8.722;2023-06-01T14:38:39;29.10;10.00
4651;DHT22;2338;49.602;8.722;2023-06-01T14:41:25;29.20;11.90
4651;DHT22;2338;49.602;8.722;2023-06-01T14:44:11;29.30;11.30
4651;DHT22;2338;49.602;8.722;2023-06-01T14:46:56;29.30;9.70
4651;DHT22;2338;49.602;8.722;2023-06-01T14:49:42;29.40;8.80
4651;DHT22;2338;49.602;8.722;2023-06-01T14:52:29;29.40;9.80
4651;DHT22;2338;49.602;8.722;2023-06-01T14:55:14;29.40;9.80
4651;DHT22;2338;49.602;8.722;2023-06-01T14:58:00;29.40;8.50
4651;DHT22;2338;49.602;8.722;2023-06-01T15:00:47;29.40;9.80
4651;DHT22;2338;49.602;8.722;2023-06-01T15:03:32;29.30;9.70
4651;DHT22;2338;49.602;8.722;2023-06-01T15:06:18;28.80;8.40
4651;DHT22;2338;49.602;8.722;2023-06-01T15:09:05;28.90;8.10
4651;DHT22;2338;49.602;8.722;2023-06-01T15:11:51;28.90;8.40
4651;DHT22;2338;49.602;8.722;2023-06-01T15:14:36;28.90;9.70
4651;DHT22;2338;49.602;8.722;2023-06-01T15:17:22;29.00;8.30
4651;DHT22;2338;49.602;8.722;2023-06-01T15:20:08;29.00;8.80
4651;DHT22;2338;49.602;8.722;2023-06-01T15:22:53;29.10;9.80
4651;DHT22;2338;49.602;8.722;2023-06-01T15:25:40;29.00;8.20
4651;DHT22;2338;49.602;8.722;2023-06-01T15:28:25;29.10;9.60
4651;DHT22;2338;49.602;8.722;2023-06-01T15:31:11;29.00;9.30
4651;DHT22;2338;49.602;8.722;2023-06-01T15:33:57;29.00;9.50
4651;DHT22;2338;49.602;8.722;2023-06-01T15:36:42;29.00;9.50
4651;DHT22;2338;49.602;8.722;2023-06-01T15:39:28;29.00;8.00
4651;DHT22;2338;49.602;8.722;2023-06-01T15:42:15;28.90;9.40
4651;DHT22;2338;49.602;8.722;2023-06-01T15:45:00;28.90;8.80
4651;DHT22;2338;49.602;8.722;2023-06-01T15:47:45;28.90;9.90
4651;DHT22;2338;49.602;8.722;2023-06-01T15:50:31;28.90;8.80
4651;DHT22;2338;49.602;8.722;2023-06-01T15:53:17;28.90;7.90
4651;DHT22;2338;49.602;8.722;2023-06-01T15:56:03;28.90;7.70
4651;DHT22;2338;49.602;8.722;2023-06-01T15:58:49;28.90;6.40
4651;DHT22;2338;49.602;8.722;2023-06-01T16:01:35;28.90;6.30
4651;DHT22;2338;49.602;8.722;2023-06-01T16:04:20;28.90;7.00
4651;DHT22;2338;49.602;8.722;2023-06-01T16:07:06;28.90;6.70
4651;DHT22;2338;49.602;8.722;2023-06-01T16:09:51;28.90;6.80
4651;DHT22;2338;49.602;8.722;2023-06-01T16:12:37;28.70;7.60
4651;DHT22;2338;49.602;8.722;2023-06-01T16:15:24;28.70;7.10
4651;DHT22;2338;49.602;8.722;2023-06-01T16:18:09;28.70;6.70
4651;DHT22;2338;49.602;8.722;2023-06-01T16:20:55;28.70;7.20
4651;DHT22;2338;49.602;8.722;2023-06-01T16:23:40;28.60;8.50
4651;DHT22;2338;49.602;8.722;2023-06-01T16:26:26;28.60;7.60
4651;DHT22;2338;49.602;8.722;2023-06-01T16:29:11;28.50;7.90
4651;DHT22;2338;49.602;8.722;2023-06-01T16:31:58;28.50;9.20
4651;DHT22;2338;49.602;8.722;2023-06-01T16:34:44;28.40;9.10
4651;DHT22;2338;49.602;8.722;2023-06-01T16:37:29;28.40;9.10
4651;DHT22;2338;49.602;8.722;2023-06-01T16:40:15;28.30;9.10
4651;DHT22;2338;49.602;8.722;2023-06-01T16:43:01;28.20;9.10
4651;DHT22;2338;49.602;8.722;2023-06-01T16:45:46;28.10;11.00
4651;DHT22;2338;49.602;8.722;2023-06-01T16:48:33;28.00;8.90
4651;DHT22;2338;49.602;8.722;2023-06-01T16:51:19;27.90;9.60
4651;DHT22;2338;49.602;8.722;2023-06-01T16:54:06;27.90;8.80
4651;DHT22;2338;49.602;8.722;2023-06-01T16:56:51;27.80;10.40
4651;DHT22;2338;49.602;8.722;2023-06-01T16:59:37;27.70;12.50
4651;DHT22;2338;49.602;8.722;2023-06-01T17:02:23;27.50;13.60
4651;DHT22;2338;49.602;8.722;2023-06-01T17:05:10;27.40;14.20
4651;DHT22;2338;49.602;8.722;2023-06-01T17:07:55;27.20;14.30
4651;DHT22;2338;49.602;8.722;2023-06-01T17:10:42;27.10;11.10
4651;DHT22;2338;49.602;8.722;2023-06-01T17:13:27;27.10;13.80
4651;DHT22;2338;49.602;8.722;2023-06-01T17:16:13;26.70;15.80
4651;DHT22;2338;49.602;8.722;2023-06-01T17:19:02;26.40;16.60
4651;DHT22;2338;49.602;8.722;2023-06-01T17:21:51;26.10;17.40
4651;DHT22;2338;49.602;8.722;2023-06-01T17:24:37;25.70;19.30
4651;DHT22;2338;49.602;8.722;2023-06-01T17:29:58;25.00;23.20
4651;DHT22;2338;49.602;8.722;2023-06-01T17:32:43;24.70;22.70
4651;DHT22;2338;49.602;8.722;2023-06-01T17:35:28;24.60;24.70
4651;DHT22;2338;49.602;8.722;2023-06-01T17:38:15;24.40;25.00
4651;DHT22;2338;49.602;8.722;2023-06-01T17:41:01;24.30;25.00
4651;DHT22;2338;49.602;8.722;2023-06-01T17:43:47;23.90;27.80
4651;DHT22;2338;49.602;8.722;2023-06-01T17:46:33;23.70;29.40
4651;DHT22;2338;49.602;8.722;2023-06-01T17:49:18;23.60;29.40
4651;DHT22;2338;49.602;8.722;2023-06-01T17:52:04;23.30;30.30
4651;DHT22;2338;49.602;8.722;2023-06-01T17:54:51;23.10;30.00
4651;DHT22;2338;49.602;8.722;2023-06-01T17:57:37;23.00;32.80
4651;DHT22;2338;49.602;8.722;2023-06-01T18:00:23;22.80;31.80
4651;DHT22;2338;49.602;8.722;2023-06-01T18:03:08;22.60;33.80
4651;DHT22;2338;49.602;8.722;2023-06-01T18:05:53;22.40;35.90
4651;DHT22;2338;49.602;8.722;2023-06-01T18:08:39;22.30;35.90
4651;DHT22;2338;49.602;8.722;2023-06-01T18:11:26;22.20;34.90
4651;DHT22;2338;49.602;8.722;2023-06-01T18:14:11;22.10;36.60
4651;DHT22;2338;49.602;8.722;2023-06-01T18:16:57;22.00;42.80